sensor_id;sensor_type;location;lat;lon;timestamp;P1;durP1;ratioP1;P2;durP2;ratioP2
13641;SDS011;6894;52.196;9.904;2022-12-07T00:00:12;22.43;;;16.23;;
13641;SDS011;6894;52.196;9.904;2022-12-07T00:02:39;29.17;;;17.93;;
13641;SDS011;6894;52.196;9.904;2022-12-07T00:05:06;24.67;;;17.00;;
13641;SDS011;6894;52.196;9.904;2022-12-07T00:07:33;32.27;;;18.53;;
13641;SDS011;6894;52.196;9.904;2022-12-07T00:10:02;23.70;;;16.93;;
13641;SDS011;6894;52.196;9.904;2022-12-07T00:12:29;38.87;;;19.50;;
13641;SDS011;6894;52.196;9.904;2022-12-07T00:14:55;24.87;;;16.47;;
13641;SDS011;6894;52.196;9.904;2022-12-07T00:17:22;32.93;;;17.83;;
13641;SDS011;6894;52.196;9.904;2022-12-07T00:19:49;27.00;;;17.97;;
13641;SDS011;6894;52.196;9.904;2022-12-07T00:22:16;29.27;;;18.70;;
13641;SDS011;6894;52.196;9.904;2022-12-07T00:24:42;29.30;;;17.27;;
13641;SDS011;6894;52.196;9.904;2022-12-07T00:27:10;29.60;;;18.60;;
13641;SDS011;6894;52.196;9.904;2022-12-07T00:29:37;30.90;;;17.77;;
13641;SDS011;6894;52.196;9.904;2022-12-07T00:32:04;34.13;;;19.30;;
13641;SDS011;6894;52.196;9.904;2022-12-07T00:34:31;28.67;;;17.63;;
13641;SDS011;6894;52.196;9.904;2022-12-07T00:36:57;27.93;;;18.23;;
13641;SDS011;6894;52.196;9.904;2022-12-07T00:39:24;23.93;;;16.93;;
13641;SDS011;6894;52.196;9.904;2022-12-07T00:41:51;22.77;;;15.57;;
13641;SDS011;6894;52.196;9.904;2022-12-07T00:44:19;23.50;;;16.23;;
13641;SDS011;6894;52.196;9.904;2022-12-07T00:46:46;24.27;;;16.03;;
13641;SDS011;6894;52.196;9.904;2022-12-07T00:49:12;20.83;;;14.43;;
13641;SDS011;6894;52.196;9.904;2022-12-07T00:51:39;20.87;;;15.63;;
13641;SDS011;6894;52.196;9.904;2022-12-07T00:54:06;20.27;;;15.33;;
13641;SDS011;6894;52.196;9.904;2022-12-07T00:56:33;24.13;;;15.03;;
13641;SDS011;6894;52.196;9.904;2022-12-07T00:59:01;23.07;;;15.47;;
13641;SDS011;6894;52.196;9.904;2022-12-07T01:01:31;15.23;;;12.87;;
13641;SDS011;6894;52.196;9.904;2022-12-07T01:03:59;18.77;;;13.60;;
13641;SDS011;6894;52.196;9.904;2022-12-07T01:06:27;14.70;;;13.07;;
13641;SDS011;6894;52.196;9.904;2022-12-07T01:08:54;19.33;;;13.90;;
13641;SDS011;6894;52.196;9.904;2022-12-07T01:11:22;13.93;;;12.00;;
13641;SDS011;6894;52.196;9.904;2022-12-07T01:13:50;18.90;;;13.33;;
13641;SDS011;6894;52.196;9.904;2022-12-07T01:16:18;16.23;;;14.50;;
13641;SDS011;6894;52.196;9.904;2022-12-07T01:18:47;19.50;;;14.37;;
13641;SDS011;6894;52.196;9.904;2022-12-07T01:21:16;14.80;;;13.03;;
13641;SDS011;6894;52.196;9.904;2022-12-07T01:23:45;18.63;;;13.27;;
13641;SDS011;6894;52.196;9.904;2022-12-07T01:26:13;14.53;;;12.57;;
13641;SDS011;6894;52.196;9.904;2022-12-07T01:28:41;19.77;;;13.20;;
13641;SDS011;6894;52.196;9.904;2022-12-07T01:31:10;14.43;;;11.93;;
13641;SDS011;6894;52.196;9.904;2022-12-07T01:33:40;18.03;;;14.33;;
13641;SDS011;6894;52.196;9.904;2022-12-07T01:36:14;14.53;;;12.67;;
13641;SDS011;6894;52.196;9.904;2022-12-07T01:38:42;17.33;;;14.20;;
13641;SDS011;6894;52.196;9.904;2022-12-07T01:41:09;15.63;;;12.10;;
13641;SDS011;6894;52.196;9.904;2022-12-07T01:43:36;17.90;;;13.83;;
13641;SDS011;6894;52.196;9.904;2022-12-07T01:46:23;13.60;;;12.20;;
13641;SDS011;6894;52.196;9.904;2022-12-07T01:48:50;19.57;;;13.20;;
13641;SDS011;6894;52.196;9.904;2022-12-07T01:51:18;14.03;;;12.63;;
13641;SDS011;6894;52.196;9.904;2022-12-07T01:53:45;18.30;;;13.97;;
13641;SDS011;6894;52.196;9.904;2022-12-07T01:56:18;14.73;;;13.20;;
13641;SDS011;6894;52.196;9.904;2022-12-07T01:58:47;16.97;;;14.40;;
13641;SDS011;6894;52.196;9.904;2022-12-07T02:01:15;14.37;;;12.80;;
13641;SDS011;6894;52.196;9.904;2022-12-07T02:03:42;15.77;;;13.13;;
13641;SDS011;6894;52.196;9.904;2022-12-07T02:06:11;14.80;;;13.20;;
13641;SDS011;6894;52.196;9.904;2022-12-07T02:08:42;21.07;;;14.70;;
13641;SDS011;6894;52.196;9.904;2022-12-07T02:11:09;15.43;;;13.50;;
13641;SDS011;6894;52.196;9.904;2022-12-07T02:13:37;18.53;;;14.47;;
13641;SDS011;6894;52.196;9.904;2022-12-07T02:16:10;16.40;;;14.40;;
13641;SDS011;6894;52.196;9.904;2022-12-07T02:18:48;17.10;;;13.83;;
13641;SDS011;6894;52.196;9.904;2022-12-07T02:21:23;16.67;;;14.30;;
13641;SDS011;6894;52.196;9.904;2022-12-07T02:24:02;20.77;;;14.67;;
13641;SDS011;6894;52.196;9.904;2022-12-07T02:26:47;18.83;;;14.97;;
13641;SDS011;6894;52.196;9.904;2022-12-07T02:29:43;21.90;;;16.37;;
13641;SDS011;6894;52.196;9.904;2022-12-07T02:32:13;18.60;;;15.47;;
13641;SDS011;6894;52.196;9.904;2022-12-07T02:34:47;23.30;;;16.43;;
13641;SDS011;6894;52.196;9.904;2022-12-07T02:37:19;17.93;;;14.80;;
13641;SDS011;6894;52.196;9.904;2022-12-07T02:39:55;24.80;;;17.83;;
13641;SDS011;6894;52.196;9.904;2022-12-07T02:42:28;18.47;;;14.27;;
13641;SDS011;6894;52.196;9.904;2022-12-07T02:45:01;21.57;;;15.73;;
13641;SDS011;6894;52.196;9.904;2022-12-07T02:47:29;19.57;;;15.67;;
13641;SDS011;6894;52.196;9.904;2022-12-07T02:49:57;20.47;;;15.30;;
13641;SDS011;6894;52.196;9.904;2022-12-07T02:52:24;20.07;;;15.60;;
13641;SDS011;6894;52.196;9.904;2022-12-07T02:54:51;19.20;;;14.90;;
13641;SDS011;6894;52.196;9.904;2022-12-07T02:57:25;26.40;;;17.17;;
13641;SDS011;6894;52.196;9.904;2022-12-07T03:00:03;19.33;;;16.00;;
13641;SDS011;6894;52.196;9.904;2022-12-07T03:02:35;22.67;;;15.93;;
13641;SDS011;6894;52.196;9.904;2022-12-07T03:05:11;19.90;;;15.30;;
13641;SDS011;6894;52.196;9.904;2022-12-07T03:07:47;21.10;;;16.57;;
13641;SDS011;6894;52.196;9.904;2022-12-07T03:10:22;17.63;;;14.73;;
13641;SDS011;6894;52.196;9.904;2022-12-07T03:12:56;20.73;;;15.27;;
13641;SDS011;6894;52.196;9.904;2022-12-07T03:15:31;19.40;;;14.33;;
13641;SDS011;6894;52.196;9.904;2022-12-07T03:18:00;18.63;;;13.87;;
13641;SDS011;6894;52.196;9.904;2022-12-07T03:20:29;16.13;;;14.13;;
13641;SDS011;6894;52.196;9.904;2022-12-07T03:23:01;19.43;;;13.80;;
13641;SDS011;6894;52.196;9.904;2022-12-07T03:25:31;16.13;;;14.00;;
13641;SDS011;6894;52.196;9.904;2022-12-07T03:28:02;17.10;;;13.37;;
13641;SDS011;6894;52.196;9.904;2022-12-07T03:30:34;15.83;;;12.10;;
13641;SDS011;6894;52.196;9.904;2022-12-07T03:33:06;19.20;;;13.07;;
13641;SDS011;6894;52.196;9.904;2022-12-07T03:35:37;17.40;;;13.60;;
13641;SDS011;6894;52.196;9.904;2022-12-07T03:38:08;19.53;;;14.10;;
13641;SDS011;6894;52.196;9.904;2022-12-07T03:40:43;12.30;;;11.00;;
13641;SDS011;6894;52.196;9.904;2022-12-07T03:43:14;19.70;;;11.80;;
13641;SDS011;6894;52.196;9.904;2022-12-07T03:45:44;14.23;;;12.20;;
13641;SDS011;6894;52.196;9.904;2022-12-07T03:48:28;18.63;;;12.87;;
13641;SDS011;6894;52.196;9.904;2022-12-07T03:51:04;16.40;;;11.27;;
13641;SDS011;6894;52.196;9.904;2022-12-07T03:53:39;16.10;;;11.13;;
13641;SDS011;6894;52.196;9.904;2022-12-07T03:56:07;15.70;;;10.63;;
13641;SDS011;6894;52.196;9.904;2022-12-07T03:58:36;19.90;;;12.73;;
13641;SDS011;6894;52.196;9.904;2022-12-07T04:01:06;15.03;;;11.87;;
13641;SDS011;6894;52.196;9.904;2022-12-07T04:03:33;14.10;;;10.50;;
13641;SDS011;6894;52.196;9.904;2022-12-07T04:06:00;13.87;;;11.70;;
13641;SDS011;6894;52.196;9.904;2022-12-07T04:08:27;13.93;;;11.03;;
13641;SDS011;6894;52.196;9.904;2022-12-07T04:10:54;13.90;;;11.20;;
13641;SDS011;6894;52.196;9.904;2022-12-07T04:13:20;17.87;;;12.53;;
13641;SDS011;6894;52.196;9.904;2022-12-07T04:15:47;14.70;;;10.83;;
13641;SDS011;6894;52.196;9.904;2022-12-07T04:18:15;21.43;;;11.60;;
13641;SDS011;6894;52.196;9.904;2022-12-07T04:20:42;14.03;;;11.23;;
13641;SDS011;6894;52.196;9.904;2022-12-07T04:23:09;19.70;;;12.60;;
13641;SDS011;6894;52.196;9.904;2022-12-07T04:25:36;17.77;;;11.60;;
13641;SDS011;6894;52.196;9.904;2022-12-07T04:28:02;15.27;;;11.43;;
13641;SDS011;6894;52.196;9.904;2022-12-07T04:30:29;22.57;;;12.43;;
13641;SDS011;6894;52.196;9.904;2022-12-07T04:32:56;20.00;;;11.20;;
13641;SDS011;6894;52.196;9.904;2022-12-07T04:35:24;17.47;;;10.00;;
13641;SDS011;6894;52.196;9.904;2022-12-07T04:37:51;12.67;;;10.30;;
13641;SDS011;6894;52.196;9.904;2022-12-07T04:40:19;15.27;;;10.60;;
13641;SDS011;6894;52.196;9.904;2022-12-07T04:42:45;13.90;;;10.57;;
13641;SDS011;6894;52.196;9.904;2022-12-07T04:45:12;14.30;;;10.53;;
13641;SDS011;6894;52.196;9.904;2022-12-07T04:47:39;17.37;;;10.97;;
13641;SDS011;6894;52.196;9.904;2022-12-07T04:50:06;12.53;;;9.87;;
13641;SDS011;6894;52.196;9.904;2022-12-07T04:52:36;16.37;;;11.00;;
13641;SDS011;6894;52.196;9.904;2022-12-07T04:55:03;17.23;;;11.33;;
13641;SDS011;6894;52.196;9.904;2022-12-07T04:57:30;15.73;;;10.90;;
13641;SDS011;6894;52.196;9.904;2022-12-07T04:59:57;17.83;;;12.13;;
13641;SDS011;6894;52.196;9.904;2022-12-07T05:02:24;14.30;;;10.87;;
13641;SDS011;6894;52.196;9.904;2022-12-07T05:04:51;18.33;;;11.93;;
13641;SDS011;6894;52.196;9.904;2022-12-07T05:07:17;11.73;;;10.50;;
13641;SDS011;6894;52.196;9.904;2022-12-07T05:09:45;18.43;;;11.40;;
13641;SDS011;6894;52.196;9.904;2022-12-07T05:12:12;16.43;;;9.63;;
13641;SDS011;6894;52.196;9.904;2022-12-07T05:14:39;14.13;;;9.80;;
13641;SDS011;6894;52.196;9.904;2022-12-07T05:17:06;12.67;;;8.80;;
13641;SDS011;6894;52.196;9.904;2022-12-07T05:19:32;16.97;;;9.53;;
13641;SDS011;6894;52.196;9.904;2022-12-07T05:21:59;14.77;;;9.57;;
13641;SDS011;6894;52.196;9.904;2022-12-07T05:24:26;20.43;;;9.67;;
13641;SDS011;6894;52.196;9.904;2022-12-07T05:26:54;12.30;;;9.40;;
13641;SDS011;6894;52.196;9.904;2022-12-07T05:29:21;13.33;;;9.43;;
13641;SDS011;6894;52.196;9.904;2022-12-07T05:31:47;12.17;;;8.20;;
13641;SDS011;6894;52.196;9.904;2022-12-07T05:34:14;18.60;;;10.23;;
13641;SDS011;6894;52.196;9.904;2022-12-07T05:36:41;13.57;;;8.23;;
13641;SDS011;6894;52.196;9.904;2022-12-07T05:39:09;13.83;;;8.67;;
13641;SDS011;6894;52.196;9.904;2022-12-07T05:41:36;12.33;;;7.33;;
13641;SDS011;6894;52.196;9.904;2022-12-07T05:44:22;12.97;;;8.90;;
13641;SDS011;6894;52.196;9.904;2022-12-07T05:46:49;15.03;;;8.93;;
13641;SDS011;6894;52.196;9.904;2022-12-07T05:49:15;14.03;;;9.10;;
13641;SDS011;6894;52.196;9.904;2022-12-07T05:51:42;14.77;;;9.03;;
13641;SDS011;6894;52.196;9.904;2022-12-07T05:54:09;13.73;;;8.97;;
13641;SDS011;6894;52.196;9.904;2022-12-07T05:56:36;14.70;;;9.03;;
13641;SDS011;6894;52.196;9.904;2022-12-07T05:59:02;12.73;;;8.80;;
13641;SDS011;6894;52.196;9.904;2022-12-07T06:01:48;14.33;;;8.13;;
13641;SDS011;6894;52.196;9.904;2022-12-07T06:04:15;12.33;;;8.87;;
13641;SDS011;6894;52.196;9.904;2022-12-07T06:06:42;14.90;;;8.63;;
13641;SDS011;6894;52.196;9.904;2022-12-07T06:09:09;8.97;;;6.97;;
13641;SDS011;6894;52.196;9.904;2022-12-07T06:11:37;11.17;;;7.27;;
13641;SDS011;6894;52.196;9.904;2022-12-07T06:14:21;11.43;;;7.03;;
13641;SDS011;6894;52.196;9.904;2022-12-07T06:16:49;13.27;;;8.00;;
13641;SDS011;6894;52.196;9.904;2022-12-07T06:19:16;10.90;;;7.27;;
13641;SDS011;6894;52.196;9.904;2022-12-07T06:21:43;20.37;;;8.27;;
13641;SDS011;6894;52.196;9.904;2022-12-07T06:24:11;9.40;;;6.30;;
13641;SDS011;6894;52.196;9.904;2022-12-07T06:26:38;12.27;;;7.43;;
13641;SDS011;6894;52.196;9.904;2022-12-07T06:29:05;10.97;;;7.67;;
13641;SDS011;6894;52.196;9.904;2022-12-07T06:31:32;11.37;;;7.37;;
13641;SDS011;6894;52.196;9.904;2022-12-07T06:34:00;9.60;;;5.67;;
13641;SDS011;6894;52.196;9.904;2022-12-07T06:36:29;11.90;;;6.60;;
13641;SDS011;6894;52.196;9.904;2022-12-07T06:38:56;9.47;;;6.07;;
13641;SDS011;6894;52.196;9.904;2022-12-07T06:41:23;12.33;;;5.87;;
13641;SDS011;6894;52.196;9.904;2022-12-07T06:43:50;5.67;;;4.97;;
13641;SDS011;6894;52.196;9.904;2022-12-07T06:46:16;7.47;;;5.10;;
13641;SDS011;6894;52.196;9.904;2022-12-07T06:48:43;5.67;;;5.03;;
13641;SDS011;6894;52.196;9.904;2022-12-07T06:51:12;7.77;;;5.10;;
13641;SDS011;6894;52.196;9.904;2022-12-07T06:53:38;16.17;;;6.20;;
13641;SDS011;6894;52.196;9.904;2022-12-07T06:56:05;7.30;;;5.93;;
13641;SDS011;6894;52.196;9.904;2022-12-07T06:58:32;7.37;;;5.60;;
13641;SDS011;6894;52.196;9.904;2022-12-07T07:00:59;11.30;;;6.83;;
13641;SDS011;6894;52.196;9.904;2022-12-07T07:03:26;9.47;;;6.87;;
13641;SDS011;6894;52.196;9.904;2022-12-07T07:05:53;7.83;;;5.30;;
13641;SDS011;6894;52.196;9.904;2022-12-07T07:08:21;8.67;;;5.80;;
13641;SDS011;6894;52.196;9.904;2022-12-07T07:10:48;8.60;;;5.50;;
13641;SDS011;6894;52.196;9.904;2022-12-07T07:13:14;8.50;;;5.50;;
13641;SDS011;6894;52.196;9.904;2022-12-07T07:15:41;6.33;;;5.27;;
13641;SDS011;6894;52.196;9.904;2022-12-07T07:18:10;13.50;;;6.57;;
13641;SDS011;6894;52.196;9.904;2022-12-07T07:20:37;12.97;;;6.90;;
13641;SDS011;6894;52.196;9.904;2022-12-07T07:23:04;10.53;;;4.83;;
13641;SDS011;6894;52.196;9.904;2022-12-07T07:25:33;7.83;;;5.27;;
13641;SDS011;6894;52.196;9.904;2022-12-07T07:28:00;18.43;;;5.63;;
13641;SDS011;6894;52.196;9.904;2022-12-07T07:30:27;7.63;;;4.50;;
13641;SDS011;6894;52.196;9.904;2022-12-07T07:32:55;6.13;;;4.50;;
13641;SDS011;6894;52.196;9.904;2022-12-07T07:35:23;7.67;;;5.23;;
13641;SDS011;6894;52.196;9.904;2022-12-07T07:37:50;10.53;;;4.70;;
13641;SDS011;6894;52.196;9.904;2022-12-07T07:40:16;6.97;;;4.37;;
13641;SDS011;6894;52.196;9.904;2022-12-07T07:42:46;5.33;;;4.83;;
13641;SDS011;6894;52.196;9.904;2022-12-07T07:45:13;5.00;;;3.87;;
13641;SDS011;6894;52.196;9.904;2022-12-07T07:47:40;4.30;;;3.90;;
13641;SDS011;6894;52.196;9.904;2022-12-07T07:50:07;6.43;;;3.87;;
13641;SDS011;6894;52.196;9.904;2022-12-07T07:52:34;5.20;;;3.60;;
13641;SDS011;6894;52.196;9.904;2022-12-07T07:55:01;5.80;;;3.00;;
13641;SDS011;6894;52.196;9.904;2022-12-07T07:57:28;4.40;;;3.10;;
13641;SDS011;6894;52.196;9.904;2022-12-07T07:59:56;3.80;;;3.00;;
13641;SDS011;6894;52.196;9.904;2022-12-07T08:02:23;4.93;;;3.10;;
13641;SDS011;6894;52.196;9.904;2022-12-07T08:04:50;12.53;;;4.00;;
13641;SDS011;6894;52.196;9.904;2022-12-07T08:07:17;3.77;;;2.70;;
13641;SDS011;6894;52.196;9.904;2022-12-07T08:09:43;6.50;;;2.90;;
13641;SDS011;6894;52.196;9.904;2022-12-07T08:12:10;2.90;;;1.97;;
13641;SDS011;6894;52.196;9.904;2022-12-07T08:14:37;5.10;;;2.40;;
13641;SDS011;6894;52.196;9.904;2022-12-07T08:17:05;5.77;;;2.80;;
13641;SDS011;6894;52.196;9.904;2022-12-07T08:19:32;2.83;;;1.73;;
13641;SDS011;6894;52.196;9.904;2022-12-07T08:21:59;5.83;;;2.20;;
13641;SDS011;6894;52.196;9.904;2022-12-07T08:24:26;5.83;;;2.30;;
13641;SDS011;6894;52.196;9.904;2022-12-07T08:26:53;6.40;;;2.60;;
13641;SDS011;6894;52.196;9.904;2022-12-07T08:29:19;3.93;;;2.10;;
13641;SDS011;6894;52.196;9.904;2022-12-07T08:31:46;6.60;;;2.93;;
13641;SDS011;6894;52.196;9.904;2022-12-07T08:34:14;5.00;;;1.90;;
13641;SDS011;6894;52.196;9.904;2022-12-07T08:36:41;5.67;;;2.17;;
13641;SDS011;6894;52.196;9.904;2022-12-07T08:39:08;3.00;;;1.80;;
13641;SDS011;6894;52.196;9.904;2022-12-07T08:41:35;5.10;;;2.93;;
13641;SDS011;6894;52.196;9.904;2022-12-07T08:44:01;5.37;;;2.03;;
13641;SDS011;6894;52.196;9.904;2022-12-07T08:46:30;5.90;;;1.90;;
13641;SDS011;6894;52.196;9.904;2022-12-07T08:49:02;6.53;;;2.10;;
13641;SDS011;6894;52.196;9.904;2022-12-07T08:51:32;3.50;;;2.30;;
13641;SDS011;6894;52.196;9.904;2022-12-07T08:54:00;5.63;;;2.33;;
13641;SDS011;6894;52.196;9.904;2022-12-07T08:56:30;8.97;;;2.67;;
13641;SDS011;6894;52.196;9.904;2022-12-07T08:58:57;6.30;;;3.50;;
13641;SDS011;6894;52.196;9.904;2022-12-07T09:01:24;5.13;;;3.03;;
13641;SDS011;6894;52.196;9.904;2022-12-07T09:03:52;5.90;;;3.00;;
13641;SDS011;6894;52.196;9.904;2022-12-07T09:06:18;5.73;;;2.73;;
13641;SDS011;6894;52.196;9.904;2022-12-07T09:08:47;4.50;;;2.30;;
13641;SDS011;6894;52.196;9.904;2022-12-07T09:11:17;7.87;;;3.17;;
13641;SDS011;6894;52.196;9.904;2022-12-07T09:13:44;5.00;;;2.97;;
13641;SDS011;6894;52.196;9.904;2022-12-07T09:16:10;3.33;;;1.80;;
13641;SDS011;6894;52.196;9.904;2022-12-07T09:18:37;3.73;;;2.17;;
13641;SDS011;6894;52.196;9.904;2022-12-07T09:21:04;5.80;;;2.50;;
13641;SDS011;6894;52.196;9.904;2022-12-07T09:23:34;4.57;;;2.20;;
13641;SDS011;6894;52.196;9.904;2022-12-07T09:26:10;5.70;;;2.20;;
13641;SDS011;6894;52.196;9.904;2022-12-07T09:28:37;4.63;;;2.00;;
13641;SDS011;6894;52.196;9.904;2022-12-07T09:31:04;6.00;;;2.23;;
13641;SDS011;6894;52.196;9.904;2022-12-07T09:33:31;5.50;;;1.80;;
13641;SDS011;6894;52.196;9.904;2022-12-07T09:35:58;4.00;;;1.20;;
13641;SDS011;6894;52.196;9.904;2022-12-07T09:38:25;4.00;;;1.40;;
13641;SDS011;6894;52.196;9.904;2022-12-07T09:40:52;6.63;;;1.60;;
13641;SDS011;6894;52.196;9.904;2022-12-07T09:43:22;6.20;;;1.40;;
13641;SDS011;6894;52.196;9.904;2022-12-07T09:45:51;2.93;;;0.90;;
13641;SDS011;6894;52.196;9.904;2022-12-07T09:48:21;3.57;;;1.60;;
13641;SDS011;6894;52.196;9.904;2022-12-07T09:50:50;2.47;;;1.30;;
13641;SDS011;6894;52.196;9.904;2022-12-07T09:53:26;2.70;;;0.97;;
13641;SDS011;6894;52.196;9.904;2022-12-07T09:55:56;2.80;;;1.40;;
13641;SDS011;6894;52.196;9.904;2022-12-07T09:58:25;2.50;;;1.53;;
13641;SDS011;6894;52.196;9.904;2022-12-07T10:00:54;4.97;;;1.60;;
13641;SDS011;6894;52.196;9.904;2022-12-07T10:03:25;2.90;;;0.93;;
13641;SDS011;6894;52.196;9.904;2022-12-07T10:05:53;3.80;;;1.50;;
13641;SDS011;6894;52.196;9.904;2022-12-07T10:08:20;2.70;;;1.30;;
13641;SDS011;6894;52.196;9.904;2022-12-07T10:10:49;2.70;;;1.47;;
13641;SDS011;6894;52.196;9.904;2022-12-07T10:13:19;3.27;;;1.27;;
13641;SDS011;6894;52.196;9.904;2022-12-07T10:15:49;1.90;;;1.20;;
13641;SDS011;6894;52.196;9.904;2022-12-07T10:18:19;2.20;;;1.27;;
13641;SDS011;6894;52.196;9.904;2022-12-07T10:20:59;2.43;;;1.37;;
13641;SDS011;6894;52.196;9.904;2022-12-07T10:26:18;3.67;;;1.07;;
13641;SDS011;6894;52.196;9.904;2022-12-07T10:28:47;2.67;;;1.20;;
13641;SDS011;6894;52.196;9.904;2022-12-07T10:31:16;3.10;;;0.97;;
13641;SDS011;6894;52.196;9.904;2022-12-07T10:33:49;0.80;;;0.80;;
13641;SDS011;6894;52.196;9.904;2022-12-07T10:36:19;2.47;;;0.80;;
13641;SDS011;6894;52.196;9.904;2022-12-07T10:38:48;1.53;;;0.90;;
13641;SDS011;6894;52.196;9.904;2022-12-07T10:41:16;2.57;;;0.80;;
13641;SDS011;6894;52.196;9.904;2022-12-07T10:43:47;3.87;;;1.10;;
13641;SDS011;6894;52.196;9.904;2022-12-07T10:46:34;4.30;;;1.00;;
13641;SDS011;6894;52.196;9.904;2022-12-07T10:49:18;3.70;;;1.30;;
13641;SDS011;6894;52.196;9.904;2022-12-07T10:51:59;3.83;;;1.00;;
13641;SDS011;6894;52.196;9.904;2022-12-07T10:54:34;4.27;;;1.67;;
13641;SDS011;6894;52.196;9.904;2022-12-07T10:57:16;4.00;;;1.43;;
13641;SDS011;6894;52.196;9.904;2022-12-07T10:59:57;2.67;;;1.20;;
13641;SDS011;6894;52.196;9.904;2022-12-07T11:05:48;3.50;;;1.80;;
13641;SDS011;6894;52.196;9.904;2022-12-07T11:08:21;3.93;;;1.73;;
13641;SDS011;6894;52.196;9.904;2022-12-07T11:11:04;5.43;;;2.00;;
13641;SDS011;6894;52.196;9.904;2022-12-07T11:13:37;4.67;;;2.07;;
13641;SDS011;6894;52.196;9.904;2022-12-07T11:16:19;6.83;;;2.40;;
13641;SDS011;6894;52.196;9.904;2022-12-07T11:19:00;3.17;;;1.97;;
13641;SDS011;6894;52.196;9.904;2022-12-07T11:21:42;4.70;;;2.23;;
13641;SDS011;6894;52.196;9.904;2022-12-07T11:24:14;3.03;;;2.00;;
13641;SDS011;6894;52.196;9.904;2022-12-07T11:26:47;5.67;;;2.47;;
13641;SDS011;6894;52.196;9.904;2022-12-07T11:29:30;2.60;;;1.90;;
13641;SDS011;6894;52.196;9.904;2022-12-07T11:32:13;6.67;;;2.60;;
13641;SDS011;6894;52.196;9.904;2022-12-07T11:34:48;6.07;;;1.90;;
13641;SDS011;6894;52.196;9.904;2022-12-07T11:37:30;3.70;;;2.10;;
13641;SDS011;6894;52.196;9.904;2022-12-07T11:39:59;4.67;;;1.93;;
13641;SDS011;6894;52.196;9.904;2022-12-07T11:42:29;4.13;;;1.70;;
13641;SDS011;6894;52.196;9.904;2022-12-07T11:45:02;3.07;;;1.83;;
13641;SDS011;6894;52.196;9.904;2022-12-07T11:47:40;3.47;;;1.90;;
13641;SDS011;6894;52.196;9.904;2022-12-07T11:50:21;3.17;;;2.57;;
13641;SDS011;6894;52.196;9.904;2022-12-07T11:52:54;5.20;;;2.27;;
13641;SDS011;6894;52.196;9.904;2022-12-07T11:55:26;7.60;;;3.13;;
13641;SDS011;6894;52.196;9.904;2022-12-07T11:57:58;2.60;;;2.40;;
13641;SDS011;6894;52.196;9.904;2022-12-07T12:00:30;4.97;;;3.27;;
13641;SDS011;6894;52.196;9.904;2022-12-07T12:02:59;5.80;;;2.50;;
13641;SDS011;6894;52.196;9.904;2022-12-07T12:05:30;4.27;;;3.23;;
13641;SDS011;6894;52.196;9.904;2022-12-07T12:08:01;5.40;;;2.63;;
13641;SDS011;6894;52.196;9.904;2022-12-07T12:10:39;5.93;;;2.87;;
13641;SDS011;6894;52.196;9.904;2022-12-07T12:13:23;4.83;;;3.20;;
13641;SDS011;6894;52.196;9.904;2022-12-07T12:16:11;5.30;;;3.80;;
13641;SDS011;6894;52.196;9.904;2022-12-07T12:18:53;7.13;;;2.20;;
13641;SDS011;6894;52.196;9.904;2022-12-07T12:21:29;4.93;;;1.93;;
13641;SDS011;6894;52.196;9.904;2022-12-07T12:23:59;3.83;;;1.60;;
13641;SDS011;6894;52.196;9.904;2022-12-07T12:26:29;6.43;;;1.87;;
13641;SDS011;6894;52.196;9.904;2022-12-07T12:28:59;2.90;;;0.80;;
13641;SDS011;6894;52.196;9.904;2022-12-07T12:31:31;5.07;;;1.00;;
13641;SDS011;6894;52.196;9.904;2022-12-07T12:34:02;4.70;;;0.90;;
13641;SDS011;6894;52.196;9.904;2022-12-07T12:36:43;7.10;;;1.60;;
13641;SDS011;6894;52.196;9.904;2022-12-07T12:39:13;2.63;;;1.17;;
13641;SDS011;6894;52.196;9.904;2022-12-07T12:41:51;4.47;;;1.27;;
13641;SDS011;6894;52.196;9.904;2022-12-07T12:47:43;5.73;;;1.17;;
13641;SDS011;6894;52.196;9.904;2022-12-07T12:50:21;5.13;;;1.33;;
13641;SDS011;6894;52.196;9.904;2022-12-07T12:52:56;3.83;;;1.40;;
13641;SDS011;6894;52.196;9.904;2022-12-07T12:58:37;9.57;;;1.90;;
13641;SDS011;6894;52.196;9.904;2022-12-07T13:04:14;3.97;;;2.60;;
13641;SDS011;6894;52.196;9.904;2022-12-07T13:07:04;2.73;;;1.80;;
13641;SDS011;6894;52.196;9.904;2022-12-07T13:09:36;5.93;;;2.53;;
13641;SDS011;6894;52.196;9.904;2022-12-07T13:12:13;6.37;;;2.10;;
13641;SDS011;6894;52.196;9.904;2022-12-07T13:20:40;3.30;;;1.17;;
13641;SDS011;6894;52.196;9.904;2022-12-07T13:23:24;7.27;;;1.90;;
13641;SDS011;6894;52.196;9.904;2022-12-07T13:26:02;4.17;;;1.43;;
13641;SDS011;6894;52.196;9.904;2022-12-07T13:28:37;6.27;;;1.57;;
13641;SDS011;6894;52.196;9.904;2022-12-07T13:33:56;5.10;;;1.53;;
13641;SDS011;6894;52.196;9.904;2022-12-07T13:36:24;9.43;;;3.57;;
13641;SDS011;6894;52.196;9.904;2022-12-07T13:38:54;8.60;;;3.60;;
13641;SDS011;6894;52.196;9.904;2022-12-07T13:41:22;14.50;;;5.63;;
13641;SDS011;6894;52.196;9.904;2022-12-07T13:43:53;4.13;;;1.70;;
13641;SDS011;6894;52.196;9.904;2022-12-07T13:46:26;5.80;;;1.60;;
13641;SDS011;6894;52.196;9.904;2022-12-07T13:49:02;4.70;;;2.13;;
13641;SDS011;6894;52.196;9.904;2022-12-07T13:51:33;8.10;;;2.33;;
13641;SDS011;6894;52.196;9.904;2022-12-07T13:54:06;3.67;;;1.67;;
13641;SDS011;6894;52.196;9.904;2022-12-07T13:56:36;3.73;;;1.70;;
13641;SDS011;6894;52.196;9.904;2022-12-07T13:59:07;5.53;;;1.73;;
13641;SDS011;6894;52.196;9.904;2022-12-07T14:01:39;5.60;;;1.77;;
13641;SDS011;6894;52.196;9.904;2022-12-07T14:07:15;12.57;;;5.00;;
13641;SDS011;6894;52.196;9.904;2022-12-07T14:09:56;5.27;;;3.03;;
13641;SDS011;6894;52.196;9.904;2022-12-07T14:12:24;30.30;;;16.23;;
13641;SDS011;6894;52.196;9.904;2022-12-07T14:14:53;5.93;;;1.77;;
13641;SDS011;6894;52.196;9.904;2022-12-07T14:17:22;9.33;;;1.90;;
13641;SDS011;6894;52.196;9.904;2022-12-07T14:19:50;10.37;;;1.70;;
13641;SDS011;6894;52.196;9.904;2022-12-07T14:22:22;9.10;;;2.17;;
13641;SDS011;6894;52.196;9.904;2022-12-07T14:25:00;6.83;;;2.27;;
13641;SDS011;6894;52.196;9.904;2022-12-07T14:27:37;5.73;;;2.67;;
13641;SDS011;6894;52.196;9.904;2022-12-07T14:30:14;54.17;;;28.20;;
13641;SDS011;6894;52.196;9.904;2022-12-07T14:32:42;13.27;;;3.80;;
13641;SDS011;6894;52.196;9.904;2022-12-07T14:35:13;8.53;;;4.03;;
13641;SDS011;6894;52.196;9.904;2022-12-07T14:37:42;6.00;;;2.90;;
13641;SDS011;6894;52.196;9.904;2022-12-07T14:40:12;8.87;;;5.97;;
13641;SDS011;6894;52.196;9.904;2022-12-07T14:42:39;11.03;;;6.33;;
13641;SDS011;6894;52.196;9.904;2022-12-07T14:45:12;8.90;;;3.00;;
13641;SDS011;6894;52.196;9.904;2022-12-07T14:47:42;8.00;;;2.97;;
13641;SDS011;6894;52.196;9.904;2022-12-07T14:50:11;6.30;;;2.50;;
13641;SDS011;6894;52.196;9.904;2022-12-07T14:52:38;17.90;;;9.50;;
13641;SDS011;6894;52.196;9.904;2022-12-07T14:55:07;4.63;;;2.17;;
13641;SDS011;6894;52.196;9.904;2022-12-07T14:57:40;5.80;;;2.17;;
13641;SDS011;6894;52.196;9.904;2022-12-07T15:00:08;8.27;;;3.30;;
13641;SDS011;6894;52.196;9.904;2022-12-07T15:02:40;5.03;;;2.37;;
13641;SDS011;6894;52.196;9.904;2022-12-07T15:05:07;4.73;;;1.97;;
13641;SDS011;6894;52.196;9.904;2022-12-07T15:07:34;46.30;;;23.67;;
13641;SDS011;6894;52.196;9.904;2022-12-07T15:10:01;23.03;;;14.17;;
13641;SDS011;6894;52.196;9.904;2022-12-07T15:12:27;5.50;;;2.40;;
13641;SDS011;6894;52.196;9.904;2022-12-07T15:14:54;5.63;;;1.73;;
13641;SDS011;6894;52.196;9.904;2022-12-07T15:17:21;8.17;;;2.00;;
13641;SDS011;6894;52.196;9.904;2022-12-07T15:19:49;3.67;;;1.70;;
13641;SDS011;6894;52.196;9.904;2022-12-07T15:22:15;7.13;;;1.70;;
13641;SDS011;6894;52.196;9.904;2022-12-07T15:24:42;4.60;;;1.63;;
13641;SDS011;6894;52.196;9.904;2022-12-07T15:27:09;6.43;;;1.90;;
13641;SDS011;6894;52.196;9.904;2022-12-07T15:29:35;4.10;;;1.50;;
13641;SDS011;6894;52.196;9.904;2022-12-07T15:32:02;5.70;;;2.00;;
13641;SDS011;6894;52.196;9.904;2022-12-07T15:34:29;3.37;;;1.73;;